Suceava Stefan cel Mare Airport

LRSV · Suceava, 罗马尼亚

罗盘
风向 的 风向 310° Suceava Stefan cel Mare Airport 16/34
风: 5 kt, 2 beaufort

4 kt

3 kt
改变
0 ft 1.000 2.000 3.000 4.000 5.000
CAVOK
METAR LRSV 251800Z 31005KT CAVOK 19/15 Q1010

METAR Suceava Stefan cel Mare Airport - LRSV/SCV

Suceava Stefan cel Mare Airport是,罗马尼亚中的中型机场。 该机场位于纬度47,68750和经度26,35410。 该机场有一条跑道: 16/34. 本场的ICAO机场代码为LRSV。 该机场的IATA代码为SCV。 机场在Bucuresti FIR中。

该航空气象观测是针对Suceava Stefan cel Mare Airport在2024年7月25日 21:00, 当地时间进行的。

机场观察

风向为310°,速度为5 kt。

天气为CAVOK。这意味着在5.000 ft或MSA(最低安全高度)以下(以较高者为准)以下没有云。这也意味着没有观测到积雨云或高耸的积云,可见度为10 km 或者更多或更高。此外,不会有雾,降雨或其他重要天气。

温度和风寒是19 °C。 露点为15 °C,相对湿度为78%。 海平面上的气压为1010 hPa (QNH)。

白天

今天,太阳从05:43升起,在20:58降落。 这适用于Suceava Stefan cel Mare Airport,世界夏令时可能有所不同。 当地时间与世界标准时间之间的时差为+3 小时。 夏令时目前正在进行中。

公司介绍

在这个机场,你可以找到跳伞中心。 本场上唯一已知的公司是Suceava。

体会

到Vliegles.nl去找飞行课程,跳伞和其他飞行体验。 浏览页面,了解Suceava Stefan cel Mare Airport附近所有可用的活动。 你也可以使用搜索功能来寻找你所在地附近的特定飞行课程、跳伞或其他飞行体验。

跑道

Id 标题 侧风 逆风 侧风 %
16/34 163°-343° 3 kt 4 kt 54 %

逆风成分最大的方向会被突出显示,并用于横风计算。 这并不一定意味着这个方向在使用。

温度 & 天气

温度 19 °C
露点 15 °C
相对湿度 78%
Kp-index 0 (0-9)

白天

日出
05:43 (8:36)
中午
13:21
日落
20:58

小工具

你想在你的网站上有一个关于Suceava Stefan cel Mare Airport的当前航空天气(METAR)的小部件吗?

显示HTML代码
报告变更